createdAt,value
2022-08-10T00:01:52.596Z,97152.89
2022-08-10T00:04:23.467Z,97150.95
2022-08-10T00:06:54.658Z,97151.33
2022-08-10T00:09:24.196Z,97148.48
2022-08-10T00:11:52.390Z,97149.46
2022-08-10T00:14:20.663Z,97147.66
2022-08-10T00:16:48.907Z,97145.65
2022-08-10T00:19:18.332Z,97140.66
2022-08-10T00:21:47.675Z,97134.72
2022-08-10T00:24:16.158Z,97134.59
2022-08-10T00:27:57.914Z,97133.98
2022-08-10T00:29:38.241Z,97132.55
2022-08-10T00:32:06.566Z,97135.52
2022-08-10T00:34:35.000Z,97134.29
2022-08-10T00:37:03.126Z,97137.96
2022-08-10T00:39:35.951Z,97138.92
2022-08-10T00:42:09.117Z,97138.17
2022-08-10T00:44:39.344Z,97141.14
2022-08-10T00:47:10.392Z,97144.75
2022-08-10T00:49:57.100Z,97143.83
2022-08-10T00:52:28.071Z,97141.77
2022-08-10T00:54:57.121Z,97146.23
2022-08-10T00:57:28.543Z,97145.53
2022-08-10T00:59:57.839Z,97143.89
2022-08-10T01:02:30.313Z,97145.40
2022-08-10T01:05:02.246Z,97144.13
2022-08-10T01:07:49.439Z,97142.36
2022-08-10T01:10:36.386Z,97142.08
2022-08-10T01:13:31.869Z,97138.96
2022-08-10T01:16:19.678Z,97135.36
2022-08-10T01:19:00.816Z,97134.77
2022-08-10T01:21:59.919Z,97130.85
2022-08-10T01:24:47.653Z,97132.95
2022-08-10T01:27:53.889Z,97130.40
2022-08-10T01:30:24.444Z,97131.42
2022-08-10T01:32:58.009Z,97131.83
2022-08-10T01:35:46.676Z,97133.98
2022-08-10T01:38:19.365Z,97135.86
2022-08-10T01:40:52.146Z,97133.75
2022-08-10T01:43:21.147Z,97132.71
2022-08-10T01:45:55.956Z,97128.92
2022-08-10T01:48:38.774Z,97128.09
2022-08-10T01:51:22.235Z,97130.73
2022-08-10T01:53:53.868Z,97130.45
2022-08-10T01:56:24.735Z,97131.93
2022-08-10T01:58:57.329Z,97130.35
2022-08-10T02:01:39.558Z,97129.38
2022-08-10T02:04:11.203Z,97128.63
2022-08-10T02:06:43.751Z,97129.27
2022-08-10T02:09:15.578Z,97129.44
2022-08-10T02:11:55.915Z,97132.06
2022-08-10T02:14:54.081Z,97134.73
2022-08-10T02:18:00.315Z,97135.23
2022-08-10T02:20:24.294Z,97128.80
2022-08-10T02:22:59.440Z,97131.75
2022-08-10T02:25:40.581Z,97132.50
2022-08-10T02:28:29.715Z,97132.34
2022-08-10T02:31:06.968Z,97133.23
2022-08-10T02:33:56.324Z,97134.52
2022-08-10T02:36:34.292Z,97134.73
2022-08-10T02:39:05.923Z,97134.63
2022-08-10T02:45:14.098Z,97135.71
2022-08-10T02:45:24.537Z,97139.52
2022-08-10T02:47:52.095Z,97140.78
2022-08-10T02:50:28.128Z,97137.31
2022-08-10T02:53:54.787Z,97142.05
2022-08-10T02:56:35.412Z,97143.30
2022-08-10T02:59:17.577Z,97144.31
2022-08-10T03:01:49.435Z,97146.52
2022-08-10T03:04:57.083Z,97142.82
2022-08-10T03:07:15.246Z,97144.88
2022-08-10T03:09:46.272Z,97151.60
2022-08-10T03:12:37.017Z,97153.04
2022-08-10T03:15:04.951Z,97154.17
2022-08-10T03:17:33.432Z,97157.10
2022-08-10T03:20:33.335Z,97159.07
2022-08-10T03:22:52.466Z,97157.64
2022-08-10T03:25:24.105Z,97160.11
2022-08-10T03:27:53.795Z,97163.33
2022-08-10T03:30:31.931Z,97162.58
2022-08-10T03:33:05.357Z,97164.18
2022-08-10T03:35:34.736Z,97164.95
2022-08-10T03:38:03.794Z,97163.41
2022-08-10T03:40:45.538Z,97168.05
2022-08-10T03:43:20.623Z,97168.95
2022-08-10T03:45:55.691Z,97170.23
2022-08-10T03:48:32.197Z,97174.64
2022-08-10T03:51:13.556Z,97173.65
2022-08-10T03:54:05.186Z,97178.10
2022-08-10T03:56:32.634Z,97176.62
2022-08-10T03:59:02.230Z,97179.11
2022-08-10T04:02:43.757Z,97183.69
2022-08-10T04:04:24.172Z,97181.46
2022-08-10T04:06:56.193Z,97183.23
2022-08-10T04:09:53.620Z,97182.74
2022-08-10T04:12:21.378Z,97180.31
2022-08-10T04:14:52.405Z,97182.38
2022-08-10T04:18:01.205Z,97185.79
2022-08-10T04:20:29.927Z,97186.27
2022-08-10T04:23:09.798Z,97188.32
2022-08-10T04:25:40.188Z,97189.91
2022-08-10T04:28:10.619Z,97188.89
2022-08-10T04:30:40.972Z,97189.54
2022-08-10T04:33:11.384Z,97191.25
2022-08-10T04:35:40.222Z,97183.16
2022-08-10T04:38:09.670Z,97180.95
2022-08-10T04:40:38.314Z,97188.88
2022-08-10T04:43:12.261Z,97189.63
2022-08-10T04:45:50.478Z,97188.53
2022-08-10T04:48:43.403Z,97191.34
2022-08-10T04:51:18.091Z,97193.77
2022-08-10T04:54:04.480Z,97196.80
2022-08-10T04:56:38.232Z,97195.88
2022-08-10T04:59:11.214Z,97196.86
2022-08-10T05:02:29.122Z,97200.63
2022-08-10T05:04:35.922Z,97197.27
2022-08-10T05:07:09.370Z,97198.91
2022-08-10T05:10:01.629Z,97198.89
2022-08-10T05:12:27.846Z,97195.93
2022-08-10T05:14:56.488Z,97196.31
2022-08-10T05:17:24.682Z,97194.67
2022-08-10T05:20:01.788Z,97196.70
2022-08-10T05:22:36.736Z,97198.65
2022-08-10T05:25:07.300Z,97200.04
2022-08-10T05:27:35.804Z,97200.20
2022-08-10T05:30:05.461Z,97198.83
2022-08-10T05:32:59.222Z,97196.95
2022-08-10T05:35:23.310Z,97193.04
2022-08-10T05:38:12.263Z,97190.63
2022-08-10T05:40:46.511Z,97186.55
2022-08-10T05:43:21.025Z,97183.05
2022-08-10T05:46:18.349Z,97182.66
2022-08-10T05:48:59.080Z,97179.00
2022-08-10T05:51:30.248Z,97177.61
2022-08-10T05:54:04.711Z,97182.89
2022-08-10T05:56:54.726Z,97183.23
2022-08-10T06:00:33.444Z,97185.18
2022-08-10T06:02:35.377Z,97184.23
2022-08-10T06:05:10.603Z,97180.94
2022-08-10T06:07:48.069Z,97182.01
2022-08-10T06:10:29.975Z,97178.81
2022-08-10T06:13:30.907Z,97178.79
2022-08-10T06:16:09.122Z,97182.77
2022-08-10T06:18:37.795Z,97185.65
2022-08-10T06:21:09.760Z,97190.70
2022-08-10T06:23:39.852Z,97188.08
2022-08-10T06:26:13.821Z,97189.70
2022-08-10T06:29:07.818Z,97191.34
2022-08-10T06:31:47.465Z,97191.54
2022-08-10T06:34:33.100Z,97191.48
2022-08-10T06:37:06.446Z,97189.82
2022-08-10T06:39:36.798Z,97187.44
2022-08-10T06:42:18.119Z,97188.85
2022-08-10T06:45:28.427Z,97187.26
2022-08-10T06:48:06.229Z,97186.77
2022-08-10T06:50:56.149Z,97183.14
2022-08-10T06:53:53.875Z,97181.78
2022-08-10T06:56:37.929Z,97185.73
2022-08-10T06:59:34.167Z,97175.59
2022-08-10T07:02:18.204Z,97177.20
2022-08-10T07:04:56.173Z,97180.04
2022-08-10T07:07:28.744Z,97179.27
2022-08-10T07:09:58.981Z,97177.61
2022-08-10T07:12:27.946Z,97181.61
2022-08-10T07:14:58.367Z,97180.06
2022-08-10T07:17:32.326Z,97183.22
2022-08-10T07:20:04.386Z,97180.88
2022-08-10T07:23:04.819Z,97181.88
2022-08-10T07:25:27.373Z,97180.80
2022-08-10T07:27:59.542Z,97177.16
2022-08-10T07:30:38.330Z,97178.35
2022-08-10T07:33:08.280Z,97179.29
2022-08-10T07:35:43.209Z,97177.98
2022-08-10T07:38:18.710Z,97180.15
2022-08-10T07:40:48.808Z,97175.83
2022-08-10T07:43:19.211Z,97176.43
2022-08-10T07:45:48.418Z,97179.85
2022-08-10T07:48:23.225Z,97174.82
2022-08-10T07:50:55.295Z,97177.84
2022-08-10T07:53:27.161Z,97179.57
2022-08-10T07:56:05.737Z,97181.33
2022-08-10T07:58:52.003Z,97179.92
2022-08-10T08:01:24.403Z,97187.36
2022-08-10T08:04:05.769Z,97185.92
2022-08-10T08:06:42.366Z,97182.92
2022-08-10T08:09:11.535Z,97185.32
2022-08-10T08:11:44.652Z,97182.36
2022-08-10T08:14:16.313Z,97180.14
2022-08-10T08:16:48.208Z,97183.23
2022-08-10T08:19:37.235Z,97183.69
2022-08-10T08:24:07.517Z,97175.52
2022-08-10T08:24:57.566Z,97171.72
2022-08-10T08:27:28.614Z,97166.45
2022-08-10T08:29:58.223Z,97168.39
2022-08-10T08:32:30.305Z,97165.18
2022-08-10T08:35:03.532Z,97162.49
2022-08-10T08:38:29.976Z,97168.27
2022-08-10T08:40:29.896Z,97166.63
2022-08-10T08:43:27.308Z,97172.13
2022-08-10T08:46:18.531Z,97168.08
2022-08-10T08:49:04.668Z,97166.83
2022-08-10T08:52:07.203Z,97171.34
2022-08-10T08:55:50.160Z,97165.24
2022-08-10T08:58:30.758Z,97160.09
2022-08-10T09:01:38.277Z,97158.55
2022-08-10T09:04:31.292Z,97157.11
2022-08-10T09:08:00.433Z,97155.70
2022-08-10T09:10:41.986Z,97151.95
2022-08-10T09:13:32.245Z,97154.65
2022-08-10T09:16:06.294Z,97150.45
2022-08-10T09:18:49.637Z,97153.11
2022-08-10T09:21:29.701Z,97153.20
2022-08-10T09:24:06.297Z,97154.91
2022-08-10T09:26:49.899Z,97148.84
2022-08-10T09:29:31.274Z,97153.24
2022-08-10T09:36:19.687Z,97155.94
2022-08-10T09:36:22.444Z,97151.63
2022-08-10T09:38:22.100Z,97145.06
2022-08-10T09:41:03.988Z,97148.01
2022-08-10T09:43:44.144Z,97150.23
2022-08-10T09:46:33.465Z,97148.84
2022-08-10T09:49:16.161Z,97153.08
2022-08-10T09:52:00.137Z,97155.51
2022-08-10T09:54:49.136Z,97148.41
2022-08-10T09:57:46.491Z,97140.77
2022-08-10T10:00:32.054Z,97140.67
2022-08-10T10:03:24.012Z,97138.29
2022-08-10T10:05:57.218Z,97132.31
2022-08-10T10:08:30.752Z,97128.71
2022-08-10T10:11:21.336Z,97128.04
2022-08-10T10:14:12.211Z,97132.48
2022-08-10T10:16:57.605Z,97125.27
2022-08-10T10:19:50.718Z,97123.61
2022-08-10T10:22:30.531Z,97125.77
2022-08-10T10:25:20.726Z,97127.34
2022-08-10T10:28:06.070Z,97120.52
2022-08-10T10:30:46.063Z,97116.52
2022-08-10T10:33:25.411Z,97117.43
2022-08-10T10:35:55.962Z,97119.89
2022-08-10T10:38:29.080Z,97122.91
2022-08-10T10:41:56.259Z,97123.65
2022-08-10T10:44:44.552Z,97119.60
2022-08-10T10:47:35.170Z,97117.13
2022-08-10T10:50:31.577Z,97117.12
2022-08-10T10:53:02.719Z,97116.04
2022-08-10T10:56:13.521Z,97113.10
2022-08-10T10:58:58.976Z,97108.32
2022-08-10T11:01:27.071Z,97104.15
2022-08-10T11:04:24.994Z,97102.86
2022-08-10T11:07:10.580Z,97107.54
2022-08-10T11:10:05.014Z,97110.27
2022-08-10T11:12:56.206Z,97104.70
2022-08-10T11:15:47.349Z,97099.20
2022-08-10T11:18:27.985Z,97100.50
2022-08-10T11:21:04.533Z,97100.28
2022-08-10T11:23:44.086Z,97094.35
2022-08-10T11:26:25.929Z,97098.39
2022-08-10T11:29:07.615Z,97099.25
2022-08-10T11:31:50.785Z,97099.20
2022-08-10T11:34:47.453Z,97100.63
2022-08-10T11:38:32.854Z,97096.62
2022-08-10T11:40:52.784Z,97101.02
2022-08-10T11:43:29.148Z,97095.31
2022-08-10T11:46:19.405Z,97090.83
2022-08-10T11:49:04.126Z,97092.84
2022-08-10T11:51:44.282Z,97099.23
2022-08-10T11:54:25.852Z,97094.77
2022-08-10T11:57:02.585Z,97093.23
2022-08-10T11:59:58.568Z,97084.60
2022-08-10T12:02:40.790Z,97082.20
2022-08-10T12:05:18.100Z,97082.55
2022-08-10T12:10:02.980Z,97081.60
2022-08-10T12:10:44.148Z,97080.52
2022-08-10T12:13:22.804Z,97074.52
2022-08-10T12:16:07.833Z,97076.06
2022-08-10T12:18:58.018Z,97084.55
2022-08-10T12:21:33.985Z,97085.26
2022-08-10T12:24:30.325Z,97082.23
2022-08-10T12:27:03.217Z,97075.85
2022-08-10T12:29:39.487Z,97072.91
2022-08-10T12:32:35.181Z,97070.77
2022-08-10T12:35:31.407Z,97058.42
2022-08-10T12:38:21.522Z,97054.95
2022-08-10T12:41:04.644Z,97053.05
2022-08-10T12:44:06.571Z,97050.65
2022-08-10T12:46:52.366Z,97046.97
2022-08-10T12:49:30.299Z,97046.73
2022-08-10T12:52:07.115Z,97046.12
2022-08-10T12:54:38.070Z,97039.42
2022-08-10T12:57:13.489Z,97043.83
2022-08-10T13:00:17.520Z,97044.58
2022-08-10T13:02:49.423Z,97046.94
2022-08-10T13:05:20.247Z,97044.70
2022-08-10T13:08:27.284Z,97044.56
2022-08-10T13:11:02.307Z,97038.81
2022-08-10T13:13:36.913Z,97037.59
2022-08-10T13:16:06.402Z,97028.55
2022-08-10T13:18:40.961Z,97028.64
2022-08-10T13:21:20.666Z,97024.49
2022-08-10T13:24:14.047Z,97024.38
2022-08-10T13:27:26.075Z,97027.95
2022-08-10T13:29:57.703Z,97021.72
2022-08-10T13:32:33.750Z,97014.41
2022-08-10T13:35:12.189Z,97007.29
2022-08-10T13:37:45.493Z,97003.80
2022-08-10T13:40:19.966Z,97004.75
2022-08-10T13:42:52.157Z,97004.06
2022-08-10T13:45:24.439Z,97008.19
2022-08-10T13:47:56.460Z,97003.24
2022-08-10T13:50:34.892Z,96999.35
2022-08-10T13:53:14.686Z,96995.23
2022-08-10T13:55:55.093Z,96993.27
2022-08-10T13:58:34.023Z,96992.61
2022-08-10T14:01:11.431Z,96986.20
2022-08-10T14:03:43.499Z,96990.23
2022-08-10T14:06:17.437Z,96986.30
2022-08-10T14:08:49.610Z,96988.73
2022-08-10T14:11:20.962Z,96986.46
2022-08-10T14:13:56.987Z,96984.31
2022-08-10T14:16:26.995Z,96982.98
2022-08-10T14:18:59.955Z,96983.17
2022-08-10T14:21:29.531Z,96986.45
2022-08-10T14:23:58.412Z,96982.30
2022-08-10T14:26:32.382Z,96980.59
2022-08-10T14:29:18.943Z,96978.08
2022-08-10T14:32:01.463Z,96974.30
2022-08-10T14:36:18.493Z,96979.82
2022-08-10T14:37:38.633Z,96980.15
2022-08-10T14:40:19.491Z,96977.55
2022-08-10T14:43:04.693Z,96970.58
2022-08-10T14:45:37.975Z,96976.42
2022-08-10T14:48:11.394Z,96973.17
2022-08-10T14:50:55.518Z,96974.88
2022-08-10T14:53:28.683Z,96968.40
2022-08-10T14:56:02.042Z,96965.80
2022-08-10T14:58:38.672Z,96965.45
2022-08-10T15:01:08.535Z,96971.86
2022-08-10T15:04:00.813Z,96966.95
2022-08-10T15:06:31.974Z,96971.22
2022-08-10T15:09:19.898Z,96970.84
2022-08-10T15:12:15.203Z,96970.91
2022-08-10T15:14:46.882Z,96974.54
2022-08-10T15:17:35.287Z,96968.69
2022-08-10T15:20:15.970Z,96966.48
2022-08-10T15:22:55.648Z,96963.30
2022-08-10T15:25:26.279Z,96964.20
2022-08-10T15:28:06.481Z,96962.93
2022-08-10T15:30:51.389Z,96954.15
2022-08-10T15:34:03.613Z,96953.73
2022-08-10T15:37:36.877Z,96956.61
2022-08-10T15:40:24.116Z,96956.25
2022-08-10T15:42:55.472Z,96951.63
2022-08-10T15:45:26.992Z,96956.51
2022-08-10T15:48:03.196Z,96954.98
2022-08-10T15:50:40.285Z,96959.20
2022-08-10T15:53:49.412Z,96955.46
2022-08-10T15:56:28.638Z,96961.45
2022-08-10T15:59:13.027Z,96967.45
2022-08-10T16:02:04.594Z,96967.36
2022-08-10T16:04:33.224Z,96971.45
2022-08-10T16:07:12.510Z,96971.08
2022-08-10T16:10:22.603Z,96965.45
2022-08-10T16:12:59.800Z,96967.82
2022-08-10T16:15:31.935Z,96971.58
2022-08-10T16:17:59.953Z,96971.66
2022-08-10T16:20:47.932Z,96976.86
2022-08-10T16:23:29.751Z,96976.08
2022-08-10T16:26:13.439Z,96980.34
2022-08-10T16:29:02.635Z,96976.09
2022-08-10T16:31:33.885Z,96975.38
2022-08-10T16:34:08.121Z,96971.27
2022-08-10T16:36:44.866Z,96970.77
2022-08-10T16:39:58.058Z,96971.52
2022-08-10T16:42:24.265Z,96971.27
2022-08-10T16:45:03.026Z,96972.71
2022-08-10T16:47:35.563Z,96972.79
2022-08-10T16:50:09.505Z,96967.98
2022-08-10T16:52:39.940Z,96972.85
2022-08-10T16:55:23.672Z,96969.89
2022-08-10T16:57:56.102Z,96968.40
2022-08-10T17:00:25.810Z,96972.94
2022-08-10T17:03:00.276Z,96979.95
2022-08-10T17:06:09.554Z,96979.59
2022-08-10T17:08:21.484Z,96981.24
2022-08-10T17:10:55.426Z,96979.66
2022-08-10T17:13:30.955Z,96980.05
2022-08-10T17:16:04.497Z,96984.27
2022-08-10T17:18:38.590Z,96986.45
2022-08-10T17:21:18.471Z,96987.35
2022-08-10T17:23:50.422Z,96987.86
2022-08-10T17:26:35.397Z,96985.42
2022-08-10T17:29:53.771Z,96984.39
2022-08-10T17:32:18.232Z,96991.66
2022-08-10T17:34:52.416Z,96990.92
2022-08-10T17:37:24.689Z,96988.51
2022-08-10T17:39:58.419Z,96988.88
2022-08-10T17:42:27.694Z,96985.30
2022-08-10T17:44:57.013Z,96988.16
2022-08-10T17:47:27.778Z,96984.16
2022-08-10T17:49:58.357Z,96985.61
2022-08-10T17:52:32.001Z,96990.88
2022-08-10T17:55:05.824Z,96988.52
2022-08-10T17:57:39.480Z,96989.73
2022-08-10T18:00:14.805Z,96991.17
2022-08-10T18:02:46.496Z,96992.98
2022-08-10T18:05:15.622Z,96993.90
2022-08-10T18:07:48.005Z,96993.44
2022-08-10T18:10:21.206Z,96997.11
2022-08-10T18:12:55.008Z,96996.95
2022-08-10T18:15:28.191Z,96998.21
2022-08-10T18:18:02.812Z,97000.23
2022-08-10T18:20:34.809Z,96998.90
2022-08-10T18:23:05.289Z,97002.23
2022-08-10T18:25:37.682Z,97005.23
2022-08-10T18:28:11.668Z,97005.98
2022-08-10T18:30:52.732Z,97005.19
2022-08-10T18:33:28.526Z,97006.67
2022-08-10T18:36:00.805Z,97011.02
2022-08-10T18:38:30.872Z,97011.41
2022-08-10T18:41:04.230Z,97014.40
2022-08-10T18:44:06.075Z,97014.45
2022-08-10T18:46:56.235Z,97018.48
2022-08-10T18:49:34.258Z,97024.63
2022-08-10T18:52:05.866Z,97026.07
2022-08-10T18:54:45.201Z,97030.09
2022-08-10T18:57:54.377Z,97029.42
2022-08-10T19:00:28.412Z,97030.23
2022-08-10T19:03:13.940Z,97032.20
2022-08-10T19:05:58.312Z,97029.66
2022-08-10T19:08:48.856Z,97028.73
2022-08-10T19:11:37.724Z,97029.64
2022-08-10T19:14:28.879Z,97031.80
2022-08-10T19:17:16.692Z,97031.88
2022-08-10T19:19:51.024Z,97031.16
2022-08-10T19:22:34.564Z,97033.36
2022-08-10T19:26:36.452Z,97038.78
2022-08-10T19:28:31.070Z,97031.88
2022-08-10T19:31:04.956Z,97035.45
2022-08-10T19:34:11.835Z,97035.73
2022-08-10T19:37:15.649Z,97037.05
2022-08-10T19:40:04.101Z,97035.36
2022-08-10T19:42:47.111Z,97034.92
2022-08-10T19:46:01.531Z,97036.13
2022-08-10T19:48:41.223Z,97035.09
2022-08-10T19:51:21.378Z,97032.83
2022-08-10T19:54:26.817Z,97028.45
2022-08-10T19:56:55.734Z,97030.36
2022-08-10T20:00:18.042Z,97034.55
2022-08-10T20:02:23.392Z,97034.38
2022-08-10T20:05:30.121Z,97028.23
2022-08-10T20:08:17.767Z,97029.95
2022-08-10T20:11:11.360Z,97028.45
2022-08-10T20:14:08.193Z,97030.85
2022-08-10T20:16:51.347Z,97032.34
2022-08-10T20:19:53.876Z,97029.70
2022-08-10T20:22:29.198Z,97022.60
2022-08-10T20:25:12.652Z,97022.27
2022-08-10T20:27:59.267Z,97023.45
2022-08-10T20:30:48.221Z,97025.02
2022-08-10T20:33:34.665Z,97023.71
2022-08-10T20:36:08.639Z,97022.98
2022-08-10T20:39:03.737Z,97024.96
2022-08-10T20:42:05.296Z,97027.08
2022-08-10T20:44:50.953Z,97031.99
2022-08-10T20:47:54.529Z,97024.46
2022-08-10T20:50:58.989Z,97026.19
2022-08-10T20:53:32.060Z,97031.61
2022-08-10T20:56:00.535Z,97031.46
2022-08-10T20:58:53.267Z,97031.95
2022-08-10T21:02:11.760Z,97027.52
2022-08-10T21:05:14.678Z,97025.09
2022-08-10T21:08:09.505Z,97026.83
2022-08-10T21:10:46.902Z,97034.13
2022-08-10T21:13:41.261Z,97033.63
2022-08-10T21:16:20.322Z,97033.16
2022-08-10T21:19:23.164Z,97031.91
2022-08-10T21:22:12.790Z,97030.83
2022-08-10T21:25:03.403Z,97030.45
2022-08-10T21:27:55.281Z,97027.86
2022-08-10T21:30:38.803Z,97026.19
2022-08-10T21:33:17.661Z,97025.30
2022-08-10T21:36:18.542Z,97023.69
2022-08-10T21:39:07.544Z,97023.84
2022-08-10T21:45:59.206Z,97025.52
2022-08-10T21:48:57.372Z,97029.85
2022-08-10T21:52:21.932Z,97024.98
2022-08-10T21:55:14.754Z,97026.80
2022-08-10T21:58:23.689Z,97024.14
2022-08-10T22:01:39.125Z,97023.89
2022-08-10T22:04:26.578Z,97021.60
2022-08-10T22:07:19.343Z,97020.13
2022-08-10T22:10:11.495Z,97019.73
2022-08-10T22:13:08.446Z,97016.66
2022-08-10T22:16:10.839Z,97016.01
2022-08-10T22:19:03.756Z,97015.96
2022-08-10T22:22:28.806Z,97016.02
2022-08-10T22:25:37.368Z,97013.58
2022-08-10T22:28:24.246Z,97009.16
2022-08-10T22:31:25.113Z,97026.12
2022-08-10T22:31:32.503Z,97005.77
2022-08-10T22:34:41.894Z,97006.66
2022-08-10T22:37:40.366Z,97004.88
2022-08-10T22:40:35.236Z,97000.15
2022-08-10T22:43:36.415Z,96997.30
2022-08-10T22:46:34.215Z,96993.48
2022-08-10T22:49:02.636Z,96989.50
2022-08-10T22:51:58.047Z,96985.20
2022-08-10T22:55:03.635Z,96982.02
2022-08-10T22:57:50.416Z,96981.86
2022-08-10T23:00:30.702Z,96976.69
2022-08-10T23:03:24.691Z,96977.55
2022-08-10T23:06:00.505Z,96977.71
2022-08-10T23:08:40.982Z,96980.54
2022-08-10T23:11:14.656Z,96981.14
2022-08-10T23:13:46.289Z,96984.58
2022-08-10T23:16:59.942Z,96986.52
2022-08-10T23:19:35.268Z,96991.64
2022-08-10T23:22:08.020Z,96988.73
2022-08-10T23:24:51.306Z,96985.95
2022-08-10T23:27:38.313Z,96982.90
2022-08-10T23:30:18.039Z,96982.21
2022-08-10T23:33:06.712Z,96982.95
2022-08-10T23:36:13.065Z,96983.55
2022-08-10T23:38:31.753Z,96976.94
2022-08-10T23:41:04.638Z,96977.55
2022-08-10T23:44:00.802Z,96981.15
2022-08-10T23:46:29.485Z,96978.86
2022-08-10T23:49:01.562Z,96977.70
2022-08-10T23:51:54.780Z,96974.83
2022-08-10T23:54:22.526Z,96971.04
2022-08-10T23:56:56.710Z,96968.42
2022-08-10T23:59:32.094Z,96967.86
